x

West Sea Otter (46204) Wave Buoy

12:00 - Mon 31st Aug 2015 All times are PDT. -7 hours from GMT.

  • Sig Wave height 8.9ft
  • Peak Period 9s
  • Wind
    13mph, 18mph gusts
  • Sea Temp 60°f
  • Ar Temp 60°f
  • Sea Pressure 1004mb
  • West Sea Otter
  • West Sea Otter

More Historic Weather Station data

Upgrade to MSW Pro to gain access to the past 30 days of data for over 8000 Wavebouys and Weather Stations around the globe.

Join Pro

Comparision Forecast

View Surf forecast
   
Seg 08/31 12:00 9ft 9s 13 18 mph 1004mb 60f 60f
Dom 08/30 11:00 10ft 8s 13 16 mph 1003.6mb 60f 60f
10:00 9ft 8s 16 20 mph 1002.9mb 60f 60f
9:00 8.5ft 8s 13 16 mph 1002.2mb 60f 60f
8:00 9ft 8s 16 18 mph 1001.3mb 60f 60f
7:00 9.5ft 7s 20 22 mph 1000.5mb 60f 59f
6:00 10.5ft 8s 20 25 mph 999.9mb 60f 59f
5:00 12ft 7s 25 31 mph 999.5mb 59f 59f
4:00 10ft 7s 34 43 mph 999.3mb 60f 57f
3:00 9ft 10s 36 43 mph 999.8mb 60f 57f
2:00 8ft 10s 31 40 mph 1000.8mb 60f 58f
1:00 7.5ft 16s 27 31 mph 1001.5mb 60f 59f
12:00 8ft 10s 25 27 mph 1002.1mb 60f 59f
11:00  -   -  25
mph
- - -
10:00 7.5ft 10s 22 27 mph 1003.1mb 60f 59f
9:00 7ft 10s 20 25 mph 1003mb 60f 59f
8:00 7ft 15s 11 16 mph 1002.7mb 60f 59f
7:00 7ft 14s 18 20 mph 1002.2mb 60f 59f
6:00 6.5ft 14s 20 22 mph 1001.7mb 60f 59f
5:00 6.5ft 8s 20 25 mph 1001.3mb 60f 58f
4:00 6.5ft 10s 22 27 mph 1000.6mb 60f 58f
3:00 6.5ft 17s 22 27 mph 1000mb 60f 58f
2:00 6.5ft 17s 20 25 mph 999.8mb 60f 58f
1:00 7ft 11s 22 25 mph 999.3mb 60f 58f
12:00 7ft 12s 22 27 mph 998.9mb 60f 58f
Sáb 08/29 11:00 7ft 11s 27 31 mph 998.2mb 60f 58f
10:00 7ft 12s 25 31 mph 998.3mb 60f 58f
9:00 7ft 11s 22 27 mph 997.9mb 60f 58f
8:00 6.5ft 8s 13 16 mph 997.3mb 60f 59f
7:00 7ft 15s 13 18 mph 996.6mb 60f 58f
6:00 6ft 9s 22 27 mph 995.3mb 60f 58f
5:00 6ft 7s 16 20 mph 994.5mb 60f 57f
4:00 5.5ft 8s 18 22 mph 993.5mb 60f 57f
3:00 6ft 7s 9 13 mph 992.4mb 61f 55f
2:00 6ft 8s 9 11 mph 990.4mb 61f 56f
1:00 6ft 8s 11 13 mph 989.1mb 61f 56f
12:00 6ft 8s 13 18 mph 988.5mb 60f 57f
11:00 6.5ft 8s 9 16 mph 989.1mb 60f 57f
10:00 7ft 8s 2 4 mph 990mb 60f 57f
9:00 7ft 8s 2 4 mph 991.1mb 60f 57f
8:00 6.5ft 8s 4 7 mph 992.5mb 61f 58f
7:00 7.5ft 8s 9 13 mph 993.7mb 61f 60f
6:00 7.5ft 8s 11 13 mph 994.5mb 61f 61f
5:00 7.5ft 8s 13 16 mph 995.9mb 61f 61f
4:00 8ft 8s 16 18 mph 997.1mb 61f 61f
3:00 8ft 8s 16 18 mph 998.5mb 60f 61f
2:00 8.5ft 8s 18 25 mph 999.5mb 61f 61f
1:00 8ft 8s 22 25 mph 1000.5mb 61f 62f
12:00 8ft 8s 22 27 mph 1001.2mb 62f 62f
Sex 08/28 11:00 8ft 6s 22 27 mph 1002.1mb 61f 61f
10:00  -   -  22
mph
1002.9mb - 61f
9:00 8.5ft 6s 25 31 mph 1003.4mb 62f 61f
8:00 8ft 7s 29 38 mph 1003.7mb 62f 62f
7:00 8ft 6s 31 38 mph 1004.3mb 62f 61f
6:00 7ft 6s 25 29 mph 1005.1mb 62f 60f
5:00 6.5ft 6s 29 34 mph 1005.7mb 62f 61f
4:00 6ft 5s 29 36 mph 1006.1mb 62f 61f
3:00 5.5ft 5s 29 34 mph 1006.5mb 62f 60f
2:00 6ft 5s 27 34 mph 1006.6mb 62f 60f
1:00 5ft 15s 27 34 mph 1006.7mb 62f 60f
12:00 5ft 14s 25 31 mph 1006.9mb 62f 60f
11:00 4.5ft 5s 20 25 mph 1007mb 62f 60f
10:00 4.5ft 14s 22 27 mph 1007mb 62f 60f
9:00 4.5ft 14s 22 27 mph 1007.4mb 62f 60f
8:00 4ft 14s 22 27 mph 1007.6mb 61f 58f
7:00 3.5ft 14s 11 13 mph 1007.7mb 62f 58f
6:00 4ft 16s 11 13 mph 1008.1mb 62f 57f
5:00 4.5ft 15s 22 27 mph 1008mb 62f 59f
4:00 4ft 15s 20 22 mph 1008.9mb 62f 59f
3:00 3.5ft 14s 20 22 mph 1009.6mb 62f 60f
2:00 3.5ft 15s 18 22 mph 1009.9mb 62f 61f
1:00 3.5ft 15s 18 20 mph 1010.6mb 62f 61f
12:00 3.5ft 15s 13 16 mph 1011.4mb 62f 61f
Qui 08/27 11:00 3ft 16s 9
mph
1012.2mb 62f 61f
10:00 3.5ft 15s 7 9 mph 1012.9mb 62f 61f
9:00 3.5ft 14s 9 11 mph 1013.5mb 62f 61f
8:00 3.5ft 15s 9 11 mph 1013.6mb 62f 61f
7:00 3ft 14s 9 11 mph 1013.9mb 63f 62f
6:00 2.5ft 14s 9 13 mph 1014.6mb 63f 62f
5:00 2.5ft 15s 4 7 mph 1015.4mb 63f 62f
4:00 2.5ft 14s 7 9 mph 1016.4mb 63f 62f
3:00 2.5ft 14s 7 9 mph 1016.6mb 63f 62f
2:00 2.5ft 15s 7 9 mph 1017.1mb 63f 61f
1:00 2.5ft 15s 9
mph
1017.5mb 62f 61f
12:00 2.5ft 15s 7 9 mph 1017.8mb 62f 60f
11:00 2.5ft 14s 9 11 mph 1017.6mb 62f 59f
10:00 3ft 13s 9
mph
1017.4mb 62f 60f
9:00 3ft 14s 9 11 mph 1017.6mb 62f 60f